sensor_id;sensor_type;location;lat;lon;timestamp;temperature;humidity
28460;DHT22;32528;45.712;9.192;2022-07-29T00:00:33;21.20;99.90
28460;DHT22;32528;45.712;9.192;2022-07-29T00:02:34;21.10;99.90
28460;DHT22;32528;45.712;9.192;2022-07-29T00:04:35;21.10;99.90
28460;DHT22;32528;45.712;9.192;2022-07-29T00:06:36;21.00;99.90
28460;DHT22;32528;45.712;9.192;2022-07-29T00:08:37;20.90;99.90
28460;DHT22;32528;45.712;9.192;2022-07-29T00:10:38;20.80;99.90
28460;DHT22;32528;45.712;9.192;2022-07-29T00:12:39;20.80;99.90
28460;DHT22;32528;45.712;9.192;2022-07-29T00:14:39;20.80;99.90
28460;DHT22;32528;45.712;9.192;2022-07-29T00:16:40;20.60;99.90
28460;DHT22;32528;45.712;9.192;2022-07-29T00:18:41;20.60;99.90
28460;DHT22;32528;45.712;9.192;2022-07-29T00:20:41;20.30;99.90
28460;DHT22;32528;45.712;9.192;2022-07-29T00:22:42;20.40;99.90
28460;DHT22;32528;45.712;9.192;2022-07-29T00:24:43;20.30;99.90
28460;DHT22;32528;45.712;9.192;2022-07-29T00:26:44;20.40;99.90
28460;DHT22;32528;45.712;9.192;2022-07-29T00:28:44;20.40;99.90
28460;DHT22;32528;45.712;9.192;2022-07-29T00:30:46;20.30;99.90
28460;DHT22;32528;45.712;9.192;2022-07-29T00:32:46;20.40;99.90
28460;DHT22;32528;45.712;9.192;2022-07-29T00:34:47;20.30;99.90
28460;DHT22;32528;45.712;9.192;2022-07-29T00:37:06;20.30;99.90
28460;DHT22;32528;45.712;9.192;2022-07-29T00:39:07;20.40;99.90
28460;DHT22;32528;45.712;9.192;2022-07-29T00:41:08;20.40;99.90
28460;DHT22;32528;45.712;9.192;2022-07-29T00:43:10;20.40;99.90
28460;DHT22;32528;45.712;9.192;2022-07-29T00:45:12;20.40;99.90
28460;DHT22;32528;45.712;9.192;2022-07-29T00:47:13;20.40;99.90
28460;DHT22;32528;45.712;9.192;2022-07-29T00:49:14;20.40;99.90
28460;DHT22;32528;45.712;9.192;2022-07-29T00:51:15;20.30;99.90
28460;DHT22;32528;45.712;9.192;2022-07-29T00:53:15;20.10;99.90
28460;DHT22;32528;45.712;9.192;2022-07-29T00:55:16;20.10;99.90
28460;DHT22;32528;45.712;9.192;2022-07-29T00:57:17;20.10;99.90
28460;DHT22;32528;45.712;9.192;2022-07-29T00:59:18;20.10;99.90
28460;DHT22;32528;45.712;9.192;2022-07-29T01:01:19;20.00;99.90
28460;DHT22;32528;45.712;9.192;2022-07-29T01:03:19;20.10;99.90
28460;DHT22;32528;45.712;9.192;2022-07-29T01:05:23;20.20;99.90
28460;DHT22;32528;45.712;9.192;2022-07-29T01:07:25;20.20;99.90
28460;DHT22;32528;45.712;9.192;2022-07-29T01:09:27;20.10;99.90
28460;DHT22;32528;45.712;9.192;2022-07-29T01:11:28;20.10;99.90
28460;DHT22;32528;45.712;9.192;2022-07-29T01:13:31;20.10;99.90
28460;DHT22;32528;45.712;9.192;2022-07-29T01:15:40;20.10;99.90
28460;DHT22;32528;45.712;9.192;2022-07-29T01:24:42;20.30;99.90
28460;DHT22;32528;45.712;9.192;2022-07-29T01:31:25;20.70;99.90
28460;DHT22;32528;45.712;9.192;2022-07-29T01:33:30;20.80;99.90
28460;DHT22;32528;45.712;9.192;2022-07-29T01:35:51;20.90;99.90
28460;DHT22;32528;45.712;9.192;2022-07-29T01:38:17;21.00;99.90
28460;DHT22;32528;45.712;9.192;2022-07-29T01:40:30;21.00;99.90
28460;DHT22;32528;45.712;9.192;2022-07-29T01:42:39;21.00;99.90
28460;DHT22;32528;45.712;9.192;2022-07-29T01:44:50;21.00;99.90
28460;DHT22;32528;45.712;9.192;2022-07-29T01:46:58;21.10;99.90
28460;DHT22;32528;45.712;9.192;2022-07-29T01:49:27;21.00;99.90
28460;DHT22;32528;45.712;9.192;2022-07-29T01:51:35;21.10;99.90
28460;DHT22;32528;45.712;9.192;2022-07-29T01:55:47;21.10;99.90
28460;DHT22;32528;45.712;9.192;2022-07-29T01:57:49;21.00;99.90
28460;DHT22;32528;45.712;9.192;2022-07-29T01:59:51;21.10;99.90
28460;DHT22;32528;45.712;9.192;2022-07-29T02:01:53;21.10;99.90
28460;DHT22;32528;45.712;9.192;2022-07-29T02:03:56;21.10;99.90
28460;DHT22;32528;45.712;9.192;2022-07-29T02:05:57;21.10;99.90
28460;DHT22;32528;45.712;9.192;2022-07-29T02:08:01;21.10;99.90
28460;DHT22;32528;45.712;9.192;2022-07-29T02:10:03;21.10;99.90
28460;DHT22;32528;45.712;9.192;2022-07-29T02:12:06;21.10;99.90
28460;DHT22;32528;45.712;9.192;2022-07-29T02:14:10;21.10;99.90
28460;DHT22;32528;45.712;9.192;2022-07-29T02:16:12;21.10;99.90
28460;DHT22;32528;45.712;9.192;2022-07-29T02:18:17;21.10;99.90
28460;DHT22;32528;45.712;9.192;2022-07-29T02:20:19;21.10;99.90
28460;DHT22;32528;45.712;9.192;2022-07-29T02:22:21;21.20;99.90
28460;DHT22;32528;45.712;9.192;2022-07-29T02:24:23;21.20;99.90
28460;DHT22;32528;45.712;9.192;2022-07-29T02:26:26;21.10;99.90
28460;DHT22;32528;45.712;9.192;2022-07-29T02:28:28;21.10;99.90
28460;DHT22;32528;45.712;9.192;2022-07-29T02:30:30;21.10;99.90
28460;DHT22;32528;45.712;9.192;2022-07-29T02:32:32;21.00;99.90
28460;DHT22;32528;45.712;9.192;2022-07-29T02:34:35;21.00;99.90
28460;DHT22;32528;45.712;9.192;2022-07-29T02:36:38;20.90;99.90
28460;DHT22;32528;45.712;9.192;2022-07-29T02:38:42;20.90;99.90
28460;DHT22;32528;45.712;9.192;2022-07-29T02:40:53;20.90;99.90
28460;DHT22;32528;45.712;9.192;2022-07-29T02:42:55;20.90;99.90
28460;DHT22;32528;45.712;9.192;2022-07-29T02:44:57;20.90;99.90
28460;DHT22;32528;45.712;9.192;2022-07-29T02:49:36;20.80;99.90
28460;DHT22;32528;45.712;9.192;2022-07-29T02:51:44;20.90;99.90
28460;DHT22;32528;45.712;9.192;2022-07-29T02:53:50;20.90;99.90
28460;DHT22;32528;45.712;9.192;2022-07-29T02:55:57;20.90;99.90
28460;DHT22;32528;45.712;9.192;2022-07-29T03:00:15;20.90;99.90
28460;DHT22;32528;45.712;9.192;2022-07-29T03:02:16;20.80;99.90
28460;DHT22;32528;45.712;9.192;2022-07-29T03:04:20;20.90;99.90
28460;DHT22;32528;45.712;9.192;2022-07-29T03:06:25;21.00;99.90
28460;DHT22;32528;45.712;9.192;2022-07-29T03:08:28;21.00;99.90
28460;DHT22;32528;45.712;9.192;2022-07-29T03:10:30;21.00;99.90
28460;DHT22;32528;45.712;9.192;2022-07-29T03:12:31;21.00;99.90
28460;DHT22;32528;45.712;9.192;2022-07-29T03:14:32;21.00;99.90
28460;DHT22;32528;45.712;9.192;2022-07-29T03:16:34;21.00;99.90
28460;DHT22;32528;45.712;9.192;2022-07-29T03:18:37;21.00;99.90
28460;DHT22;32528;45.712;9.192;2022-07-29T03:20:38;21.10;99.90
28460;DHT22;32528;45.712;9.192;2022-07-29T03:22:41;21.10;99.90
28460;DHT22;32528;45.712;9.192;2022-07-29T03:24:43;21.10;99.90
28460;DHT22;32528;45.712;9.192;2022-07-29T03:26:44;21.20;99.90
28460;DHT22;32528;45.712;9.192;2022-07-29T03:28:45;21.20;99.90
28460;DHT22;32528;45.712;9.192;2022-07-29T03:30:46;21.10;99.90
28460;DHT22;32528;45.712;9.192;2022-07-29T03:32:48;21.20;99.90
28460;DHT22;32528;45.712;9.192;2022-07-29T03:34:50;21.10;99.90
28460;DHT22;32528;45.712;9.192;2022-07-29T03:36:50;21.20;99.90
28460;DHT22;32528;45.712;9.192;2022-07-29T03:38:52;21.20;99.90
28460;DHT22;32528;45.712;9.192;2022-07-29T03:40:56;21.20;99.90
28460;DHT22;32528;45.712;9.192;2022-07-29T03:43:01;21.30;99.90
28460;DHT22;32528;45.712;9.192;2022-07-29T03:45:06;21.20;99.90
28460;DHT22;32528;45.712;9.192;2022-07-29T03:47:09;21.20;99.90
28460;DHT22;32528;45.712;9.192;2022-07-29T03:49:11;21.30;99.90
28460;DHT22;32528;45.712;9.192;2022-07-29T03:51:13;21.30;99.90
28460;DHT22;32528;45.712;9.192;2022-07-29T03:53:13;21.30;99.90
28460;DHT22;32528;45.712;9.192;2022-07-29T03:55:15;21.30;99.90
28460;DHT22;32528;45.712;9.192;2022-07-29T03:57:16;21.30;99.90
28460;DHT22;32528;45.712;9.192;2022-07-29T03:59:19;21.30;99.90
28460;DHT22;32528;45.712;9.192;2022-07-29T04:01:22;21.30;99.90
28460;DHT22;32528;45.712;9.192;2022-07-29T04:03:24;21.20;99.90
28460;DHT22;32528;45.712;9.192;2022-07-29T04:05:25;21.20;99.90
28460;DHT22;32528;45.712;9.192;2022-07-29T04:07:26;21.20;99.90
28460;DHT22;32528;45.712;9.192;2022-07-29T04:09:26;21.30;99.90
28460;DHT22;32528;45.712;9.192;2022-07-29T04:11:27;21.30;99.90
28460;DHT22;32528;45.712;9.192;2022-07-29T04:13:28;21.20;99.90
28460;DHT22;32528;45.712;9.192;2022-07-29T04:15:29;21.20;99.90
28460;DHT22;32528;45.712;9.192;2022-07-29T04:17:30;21.20;99.90
28460;DHT22;32528;45.712;9.192;2022-07-29T04:19:31;21.30;99.90
28460;DHT22;32528;45.712;9.192;2022-07-29T04:21:37;21.20;99.90
28460;DHT22;32528;45.712;9.192;2022-07-29T04:23:38;21.20;99.90
28460;DHT22;32528;45.712;9.192;2022-07-29T04:25:40;21.30;99.90
28460;DHT22;32528;45.712;9.192;2022-07-29T04:27:40;21.40;99.90
28460;DHT22;32528;45.712;9.192;2022-07-29T04:30:01;21.40;99.90
28460;DHT22;32528;45.712;9.192;2022-07-29T04:32:01;21.50;99.90
28460;DHT22;32528;45.712;9.192;2022-07-29T04:34:02;21.60;99.90
28460;DHT22;32528;45.712;9.192;2022-07-29T04:36:03;21.60;99.90
28460;DHT22;32528;45.712;9.192;2022-07-29T04:38:05;21.70;99.90
28460;DHT22;32528;45.712;9.192;2022-07-29T04:40:06;21.80;99.90
28460;DHT22;32528;45.712;9.192;2022-07-29T04:42:08;21.80;99.90
28460;DHT22;32528;45.712;9.192;2022-07-29T04:44:09;21.90;99.90
28460;DHT22;32528;45.712;9.192;2022-07-29T04:46:09;21.90;99.90
28460;DHT22;32528;45.712;9.192;2022-07-29T04:48:10;22.00;99.90
28460;DHT22;32528;45.712;9.192;2022-07-29T04:50:11;22.10;99.90
28460;DHT22;32528;45.712;9.192;2022-07-29T04:52:12;22.10;99.90
28460;DHT22;32528;45.712;9.192;2022-07-29T04:54:12;22.10;99.90
28460;DHT22;32528;45.712;9.192;2022-07-29T04:56:13;22.10;99.90
28460;DHT22;32528;45.712;9.192;2022-07-29T04:58:14;22.10;99.90
28460;DHT22;32528;45.712;9.192;2022-07-29T05:00:15;22.10;99.90
28460;DHT22;32528;45.712;9.192;2022-07-29T05:02:16;22.10;99.90
28460;DHT22;32528;45.712;9.192;2022-07-29T05:04:16;22.20;99.90
28460;DHT22;32528;45.712;9.192;2022-07-29T05:06:18;22.20;99.90
28460;DHT22;32528;45.712;9.192;2022-07-29T05:08:18;22.30;99.90
28460;DHT22;32528;45.712;9.192;2022-07-29T05:10:19;22.30;99.90
28460;DHT22;32528;45.712;9.192;2022-07-29T05:12:20;22.40;99.90
28460;DHT22;32528;45.712;9.192;2022-07-29T05:14:21;22.40;99.90
28460;DHT22;32528;45.712;9.192;2022-07-29T05:16:21;22.40;99.90
28460;DHT22;32528;45.712;9.192;2022-07-29T05:18:22;22.40;99.90
28460;DHT22;32528;45.712;9.192;2022-07-29T05:20:23;22.40;99.90
28460;DHT22;32528;45.712;9.192;2022-07-29T05:22:28;22.40;99.90
28460;DHT22;32528;45.712;9.192;2022-07-29T05:24:29;22.40;99.90
28460;DHT22;32528;45.712;9.192;2022-07-29T05:26:30;22.40;99.90
28460;DHT22;32528;45.712;9.192;2022-07-29T05:28:34;22.40;99.90
28460;DHT22;32528;45.712;9.192;2022-07-29T05:30:35;22.50;99.90
28460;DHT22;32528;45.712;9.192;2022-07-29T05:32:36;22.60;99.90
28460;DHT22;32528;45.712;9.192;2022-07-29T05:34:36;22.70;99.90
28460;DHT22;32528;45.712;9.192;2022-07-29T05:36:37;22.80;99.90
28460;DHT22;32528;45.712;9.192;2022-07-29T05:38:38;22.90;99.90
28460;DHT22;32528;45.712;9.192;2022-07-29T05:40:39;22.90;99.90
28460;DHT22;32528;45.712;9.192;2022-07-29T05:42:40;23.00;99.90
28460;DHT22;32528;45.712;9.192;2022-07-29T05:44:41;23.10;99.90
28460;DHT22;32528;45.712;9.192;2022-07-29T05:46:41;23.20;99.90
28460;DHT22;32528;45.712;9.192;2022-07-29T05:48:42;23.20;99.90
28460;DHT22;32528;45.712;9.192;2022-07-29T05:50:43;23.20;99.90
28460;DHT22;32528;45.712;9.192;2022-07-29T05:52:48;23.30;99.90
28460;DHT22;32528;45.712;9.192;2022-07-29T05:54:49;23.30;99.90
28460;DHT22;32528;45.712;9.192;2022-07-29T05:56:50;23.40;99.90
28460;DHT22;32528;45.712;9.192;2022-07-29T05:58:51;23.40;99.90
28460;DHT22;32528;45.712;9.192;2022-07-29T06:00:52;23.50;99.90
28460;DHT22;32528;45.712;9.192;2022-07-29T06:02:53;23.60;99.90
28460;DHT22;32528;45.712;9.192;2022-07-29T06:04:54;23.70;99.90
28460;DHT22;32528;45.712;9.192;2022-07-29T06:06:54;23.80;99.90
28460;DHT22;32528;45.712;9.192;2022-07-29T06:08:55;24.00;99.90
28460;DHT22;32528;45.712;9.192;2022-07-29T06:10:57;24.20;99.90
28460;DHT22;32528;45.712;9.192;2022-07-29T06:12:57;24.40;99.90
28460;DHT22;32528;45.712;9.192;2022-07-29T06:14:58;24.60;99.90
28460;DHT22;32528;45.712;9.192;2022-07-29T06:16:59;24.70;99.90
28460;DHT22;32528;45.712;9.192;2022-07-29T06:18:59;24.80;99.90
28460;DHT22;32528;45.712;9.192;2022-07-29T06:21:00;24.90;99.90
28460;DHT22;32528;45.712;9.192;2022-07-29T06:23:01;25.00;99.90
28460;DHT22;32528;45.712;9.192;2022-07-29T06:25:05;25.00;99.90
28460;DHT22;32528;45.712;9.192;2022-07-29T06:27:06;25.20;99.90
28460;DHT22;32528;45.712;9.192;2022-07-29T06:29:07;25.20;99.90
28460;DHT22;32528;45.712;9.192;2022-07-29T06:31:10;25.20;99.90
28460;DHT22;32528;45.712;9.192;2022-07-29T06:33:16;25.20;99.90
28460;DHT22;32528;45.712;9.192;2022-07-29T06:35:17;25.20;99.90
28460;DHT22;32528;45.712;9.192;2022-07-29T06:37:18;25.30;99.90
28460;DHT22;32528;45.712;9.192;2022-07-29T06:39:19;25.20;99.90
28460;DHT22;32528;45.712;9.192;2022-07-29T06:41:19;25.10;99.90
28460;DHT22;32528;45.712;9.192;2022-07-29T06:43:20;25.00;99.90
28460;DHT22;32528;45.712;9.192;2022-07-29T06:45:21;25.00;99.90
28460;DHT22;32528;45.712;9.192;2022-07-29T06:47:22;25.00;99.90
28460;DHT22;32528;45.712;9.192;2022-07-29T06:49:22;25.00;99.90
28460;DHT22;32528;45.712;9.192;2022-07-29T06:51:24;25.00;99.90
28460;DHT22;32528;45.712;9.192;2022-07-29T06:53:26;24.90;99.90
28460;DHT22;32528;45.712;9.192;2022-07-29T06:55:27;24.90;99.90
28460;DHT22;32528;45.712;9.192;2022-07-29T06:57:27;24.90;99.90
28460;DHT22;32528;45.712;9.192;2022-07-29T06:59:28;24.80;99.90
28460;DHT22;32528;45.712;9.192;2022-07-29T07:01:29;24.80;99.90
28460;DHT22;32528;45.712;9.192;2022-07-29T07:03:30;24.80;99.90
28460;DHT22;32528;45.712;9.192;2022-07-29T07:05:30;24.80;99.90
28460;DHT22;32528;45.712;9.192;2022-07-29T07:07:31;24.90;99.90
28460;DHT22;32528;45.712;9.192;2022-07-29T07:09:32;25.00;99.90
28460;DHT22;32528;45.712;9.192;2022-07-29T07:11:33;25.00;99.90
28460;DHT22;32528;45.712;9.192;2022-07-29T07:13:34;25.00;99.90
28460;DHT22;32528;45.712;9.192;2022-07-29T07:15:36;25.10;99.90
28460;DHT22;32528;45.712;9.192;2022-07-29T07:17:36;25.10;99.90
28460;DHT22;32528;45.712;9.192;2022-07-29T07:19:38;25.20;99.90
28460;DHT22;32528;45.712;9.192;2022-07-29T07:21:38;25.20;99.90
28460;DHT22;32528;45.712;9.192;2022-07-29T07:23:39;25.30;99.90
28460;DHT22;32528;45.712;9.192;2022-07-29T07:25:40;25.30;99.90
28460;DHT22;32528;45.712;9.192;2022-07-29T07:27:40;25.40;99.90
28460;DHT22;32528;45.712;9.192;2022-07-29T07:29:42;25.40;99.90
28460;DHT22;32528;45.712;9.192;2022-07-29T07:31:43;25.40;99.90
28460;DHT22;32528;45.712;9.192;2022-07-29T07:33:44;25.40;99.90
28460;DHT22;32528;45.712;9.192;2022-07-29T07:35:45;25.40;98.10
28460;DHT22;32528;45.712;9.192;2022-07-29T07:37:46;25.40;99.80
28460;DHT22;32528;45.712;9.192;2022-07-29T07:39:47;25.40;99.30
28460;DHT22;32528;45.712;9.192;2022-07-29T07:41:48;25.50;99.90
28460;DHT22;32528;45.712;9.192;2022-07-29T07:43:48;25.50;99.90
28460;DHT22;32528;45.712;9.192;2022-07-29T07:45:49;25.70;99.90
28460;DHT22;32528;45.712;9.192;2022-07-29T07:47:50;25.90;99.80
28460;DHT22;32528;45.712;9.192;2022-07-29T07:49:52;26.00;99.90
28460;DHT22;32528;45.712;9.192;2022-07-29T07:51:53;26.10;99.90
28460;DHT22;32528;45.712;9.192;2022-07-29T07:53:53;26.20;99.30
28460;DHT22;32528;45.712;9.192;2022-07-29T07:55:54;26.20;99.90
28460;DHT22;32528;45.712;9.192;2022-07-29T07:57:55;26.20;99.90
28460;DHT22;32528;45.712;9.192;2022-07-29T07:59:56;26.20;99.90
28460;DHT22;32528;45.712;9.192;2022-07-29T08:01:56;26.40;99.90
28460;DHT22;32528;45.712;9.192;2022-07-29T08:03:57;26.50;99.60
28460;DHT22;32528;45.712;9.192;2022-07-29T08:05:58;26.50;99.40
28460;DHT22;32528;45.712;9.192;2022-07-29T08:07:59;26.40;99.70
28460;DHT22;32528;45.712;9.192;2022-07-29T08:09:59;26.40;99.10
28460;DHT22;32528;45.712;9.192;2022-07-29T08:12:00;26.40;99.20
28460;DHT22;32528;45.712;9.192;2022-07-29T08:14:04;26.60;99.90
28460;DHT22;32528;45.712;9.192;2022-07-29T08:16:05;26.70;99.90
28460;DHT22;32528;45.712;9.192;2022-07-29T08:18:13;26.70;96.70
28460;DHT22;32528;45.712;9.192;2022-07-29T08:20:14;26.60;97.70
28460;DHT22;32528;45.712;9.192;2022-07-29T08:22:15;26.60;97.10
28460;DHT22;32528;45.712;9.192;2022-07-29T08:24:15;26.50;98.10
28460;DHT22;32528;45.712;9.192;2022-07-29T08:26:35;26.50;96.90
28460;DHT22;32528;45.712;9.192;2022-07-29T08:28:37;26.60;97.40
28460;DHT22;32528;45.712;9.192;2022-07-29T08:30:38;26.70;97.60
28460;DHT22;32528;45.712;9.192;2022-07-29T08:32:39;26.90;97.50
28460;DHT22;32528;45.712;9.192;2022-07-29T08:34:40;27.00;94.70
28460;DHT22;32528;45.712;9.192;2022-07-29T08:36:41;27.10;94.40
28460;DHT22;32528;45.712;9.192;2022-07-29T08:38:42;27.20;97.40
28460;DHT22;32528;45.712;9.192;2022-07-29T08:40:43;27.30;95.40
28460;DHT22;32528;45.712;9.192;2022-07-29T08:42:44;27.40;96.30
28460;DHT22;32528;45.712;9.192;2022-07-29T08:44:45;27.50;96.90
28460;DHT22;32528;45.712;9.192;2022-07-29T08:46:46;27.40;96.00
28460;DHT22;32528;45.712;9.192;2022-07-29T08:48:47;27.50;96.00
28460;DHT22;32528;45.712;9.192;2022-07-29T08:50:54;27.50;94.40
28460;DHT22;32528;45.712;9.192;2022-07-29T08:52:56;27.60;94.10
28460;DHT22;32528;45.712;9.192;2022-07-29T08:54:57;27.50;96.40
28460;DHT22;32528;45.712;9.192;2022-07-29T08:56:59;27.60;95.90
28460;DHT22;32528;45.712;9.192;2022-07-29T08:59:04;27.70;95.30
28460;DHT22;32528;45.712;9.192;2022-07-29T09:01:06;27.70;93.90
28460;DHT22;32528;45.712;9.192;2022-07-29T09:03:09;27.70;95.40
28460;DHT22;32528;45.712;9.192;2022-07-29T09:05:11;27.70;94.90
28460;DHT22;32528;45.712;9.192;2022-07-29T09:07:15;27.70;96.10
28460;DHT22;32528;45.712;9.192;2022-07-29T09:09:17;27.80;95.10
28460;DHT22;32528;45.712;9.192;2022-07-29T09:11:18;27.80;95.40
28460;DHT22;32528;45.712;9.192;2022-07-29T09:13:19;27.80;95.80
28460;DHT22;32528;45.712;9.192;2022-07-29T09:15:20;27.80;96.00
28460;DHT22;32528;45.712;9.192;2022-07-29T09:17:39;27.80;95.40
28460;DHT22;32528;45.712;9.192;2022-07-29T09:19:41;27.90;91.10
28460;DHT22;32528;45.712;9.192;2022-07-29T09:21:42;27.90;94.30
28460;DHT22;32528;45.712;9.192;2022-07-29T09:24:04;28.00;95.90
28460;DHT22;32528;45.712;9.192;2022-07-29T09:26:05;28.10;94.10
28460;DHT22;32528;45.712;9.192;2022-07-29T09:28:07;28.20;95.00
28460;DHT22;32528;45.712;9.192;2022-07-29T09:30:10;28.40;95.40
28460;DHT22;32528;45.712;9.192;2022-07-29T09:32:14;28.60;95.20
28460;DHT22;32528;45.712;9.192;2022-07-29T09:34:20;28.80;95.40
28460;DHT22;32528;45.712;9.192;2022-07-29T09:36:22;29.10;90.90
28460;DHT22;32528;45.712;9.192;2022-07-29T09:38:23;29.10;90.40
28460;DHT22;32528;45.712;9.192;2022-07-29T09:40:28;29.40;94.00
28460;DHT22;32528;45.712;9.192;2022-07-29T09:42:29;29.60;89.60
28460;DHT22;32528;45.712;9.192;2022-07-29T09:44:46;29.80;90.20
28460;DHT22;32528;45.712;9.192;2022-07-29T09:46:58;29.80;86.50
28460;DHT22;32528;45.712;9.192;2022-07-29T09:49:07;29.70;88.70
28460;DHT22;32528;45.712;9.192;2022-07-29T09:51:19;29.60;85.70
28460;DHT22;32528;45.712;9.192;2022-07-29T09:55:46;29.40;86.00
28460;DHT22;32528;45.712;9.192;2022-07-29T09:57:47;29.30;86.70
28460;DHT22;32528;45.712;9.192;2022-07-29T10:00:10;29.20;90.90
28460;DHT22;32528;45.712;9.192;2022-07-29T10:02:15;29.10;85.00
28460;DHT22;32528;45.712;9.192;2022-07-29T10:04:16;29.20;91.70
28460;DHT22;32528;45.712;9.192;2022-07-29T10:06:18;29.40;92.70
28460;DHT22;32528;45.712;9.192;2022-07-29T10:08:25;29.60;90.40
28460;DHT22;32528;45.712;9.192;2022-07-29T10:10:28;29.60;85.40
28460;DHT22;32528;45.712;9.192;2022-07-29T10:12:29;29.70;91.10
28460;DHT22;32528;45.712;9.192;2022-07-29T10:14:31;29.90;92.20
28460;DHT22;32528;45.712;9.192;2022-07-29T10:16:33;29.90;88.00
28460;DHT22;32528;45.712;9.192;2022-07-29T10:18:34;30.10;90.50
28460;DHT22;32528;45.712;9.192;2022-07-29T10:20:35;30.00;87.50
28460;DHT22;32528;45.712;9.192;2022-07-29T10:22:36;30.00;88.50
28460;DHT22;32528;45.712;9.192;2022-07-29T10:24:38;30.20;90.00
28460;DHT22;32528;45.712;9.192;2022-07-29T10:26:40;30.20;90.00
28460;DHT22;32528;45.712;9.192;2022-07-29T10:28:41;30.20;90.70
28460;DHT22;32528;45.712;9.192;2022-07-29T10:30:42;30.40;90.60
28460;DHT22;32528;45.712;9.192;2022-07-29T10:35:11;30.70;87.90
28460;DHT22;32528;45.712;9.192;2022-07-29T10:37:37;30.70;79.90
28460;DHT22;32528;45.712;9.192;2022-07-29T10:42:18;30.90;81.20
28460;DHT22;32528;45.712;9.192;2022-07-29T10:44:20;31.10;77.90
28460;DHT22;32528;45.712;9.192;2022-07-29T10:46:22;31.20;86.20
28460;DHT22;32528;45.712;9.192;2022-07-29T10:48:23;31.00;88.10
28460;DHT22;32528;45.712;9.192;2022-07-29T10:50:24;31.00;89.00
28460;DHT22;32528;45.712;9.192;2022-07-29T10:52:25;31.00;86.80
28460;DHT22;32528;45.712;9.192;2022-07-29T10:54:48;31.20;88.90
28460;DHT22;32528;45.712;9.192;2022-07-29T10:56:50;31.10;77.90
28460;DHT22;32528;45.712;9.192;2022-07-29T11:01:30;31.20;76.00
28460;DHT22;32528;45.712;9.192;2022-07-29T11:05:56;31.40;77.70
28460;DHT22;32528;45.712;9.192;2022-07-29T11:14:55;30.90;75.50
28460;DHT22;32528;45.712;9.192;2022-07-29T11:17:05;30.90;75.40
28460;DHT22;32528;45.712;9.192;2022-07-29T11:21:37;31.00;81.80
28460;DHT22;32528;45.712;9.192;2022-07-29T11:23:38;31.10;75.80
28460;DHT22;32528;45.712;9.192;2022-07-29T11:25:40;30.80;82.10
28460;DHT22;32528;45.712;9.192;2022-07-29T11:27:41;30.90;82.60
28460;DHT22;32528;45.712;9.192;2022-07-29T11:29:53;31.00;83.20
28460;DHT22;32528;45.712;9.192;2022-07-29T11:32:08;30.90;75.70
28460;DHT22;32528;45.712;9.192;2022-07-29T11:36:20;31.00;76.20
28460;DHT22;32528;45.712;9.192;2022-07-29T11:38:25;31.00;79.10
28460;DHT22;32528;45.712;9.192;2022-07-29T11:40:27;31.00;77.00
28460;DHT22;32528;45.712;9.192;2022-07-29T11:47:08;31.50;71.00
28460;DHT22;32528;45.712;9.192;2022-07-29T11:49:10;31.70;78.60
28460;DHT22;32528;45.712;9.192;2022-07-29T11:51:11;31.90;78.90
28460;DHT22;32528;45.712;9.192;2022-07-29T11:53:13;32.10;79.70
28460;DHT22;32528;45.712;9.192;2022-07-29T11:55:17;32.30;76.80
28460;DHT22;32528;45.712;9.192;2022-07-29T11:57:19;32.20;74.30
28460;DHT22;32528;45.712;9.192;2022-07-29T11:59:21;32.30;77.70
28460;DHT22;32528;45.712;9.192;2022-07-29T12:01:22;32.30;75.70
28460;DHT22;32528;45.712;9.192;2022-07-29T12:03:28;32.40;78.30
28460;DHT22;32528;45.712;9.192;2022-07-29T12:07:34;32.60;74.50
28460;DHT22;32528;45.712;9.192;2022-07-29T12:09:36;32.60;75.60
28460;DHT22;32528;45.712;9.192;2022-07-29T12:11:36;32.40;74.00
28460;DHT22;32528;45.712;9.192;2022-07-29T12:13:40;32.30;75.50
28460;DHT22;32528;45.712;9.192;2022-07-29T12:15:41;32.20;73.00
28460;DHT22;32528;45.712;9.192;2022-07-29T12:17:44;32.00;75.00
28460;DHT22;32528;45.712;9.192;2022-07-29T12:19:44;32.00;72.00
28460;DHT22;32528;45.712;9.192;2022-07-29T12:21:47;31.90;76.40
28460;DHT22;32528;45.712;9.192;2022-07-29T12:23:55;31.90;75.50
28460;DHT22;32528;45.712;9.192;2022-07-29T12:25:57;31.90;72.30
28460;DHT22;32528;45.712;9.192;2022-07-29T12:28:04;32.10;75.80
28460;DHT22;32528;45.712;9.192;2022-07-29T12:30:10;32.30;72.30
28460;DHT22;32528;45.712;9.192;2022-07-29T12:32:10;32.60;73.80
28460;DHT22;32528;45.712;9.192;2022-07-29T12:34:13;32.80;74.50
28460;DHT22;32528;45.712;9.192;2022-07-29T12:36:14;32.90;76.10
28460;DHT22;32528;45.712;9.192;2022-07-29T12:38:15;32.70;71.50
28460;DHT22;32528;45.712;9.192;2022-07-29T12:40:16;32.30;70.70
28460;DHT22;32528;45.712;9.192;2022-07-29T12:42:17;32.30;74.40
28460;DHT22;32528;45.712;9.192;2022-07-29T12:44:18;32.10;74.40
28460;DHT22;32528;45.712;9.192;2022-07-29T12:46:19;32.00;74.80
28460;DHT22;32528;45.712;9.192;2022-07-29T12:48:41;32.00;77.10
28460;DHT22;32528;45.712;9.192;2022-07-29T12:50:53;32.10;69.40
28460;DHT22;32528;45.712;9.192;2022-07-29T12:52:54;32.10;71.80
28460;DHT22;32528;45.712;9.192;2022-07-29T12:54:55;32.30;74.60
28460;DHT22;32528;45.712;9.192;2022-07-29T12:56:59;32.20;70.60
28460;DHT22;32528;45.712;9.192;2022-07-29T12:59:14;32.30;72.90
28460;DHT22;32528;45.712;9.192;2022-07-29T13:01:17;32.50;71.70
28460;DHT22;32528;45.712;9.192;2022-07-29T13:03:21;32.30;73.90
28460;DHT22;32528;45.712;9.192;2022-07-29T13:05:22;32.20;71.10
28460;DHT22;32528;45.712;9.192;2022-07-29T13:07:27;32.40;74.50
28460;DHT22;32528;45.712;9.192;2022-07-29T13:09:43;32.40;71.10
28460;DHT22;32528;45.712;9.192;2022-07-29T13:11:48;32.60;69.10
28460;DHT22;32528;45.712;9.192;2022-07-29T13:13:50;32.80;70.80
28460;DHT22;32528;45.712;9.192;2022-07-29T13:16:06;33.00;73.40
28460;DHT22;32528;45.712;9.192;2022-07-29T13:18:31;33.50;68.20
28460;DHT22;32528;45.712;9.192;2022-07-29T13:20:32;34.00;64.80
28460;DHT22;32528;45.712;9.192;2022-07-29T13:22:33;34.00;69.90
28460;DHT22;32528;45.712;9.192;2022-07-29T13:24:44;33.90;68.20
28460;DHT22;32528;45.712;9.192;2022-07-29T13:26:45;33.70;69.70
28460;DHT22;32528;45.712;9.192;2022-07-29T13:28:45;34.00;68.90
28460;DHT22;32528;45.712;9.192;2022-07-29T13:30:48;34.00;68.60
28460;DHT22;32528;45.712;9.192;2022-07-29T13:32:50;34.00;65.30
28460;DHT22;32528;45.712;9.192;2022-07-29T13:34:51;33.80;66.10
28460;DHT22;32528;45.712;9.192;2022-07-29T13:36:52;33.60;66.80
28460;DHT22;32528;45.712;9.192;2022-07-29T13:38:53;33.50;65.00
28460;DHT22;32528;45.712;9.192;2022-07-29T13:40:54;33.80;69.30
28460;DHT22;32528;45.712;9.192;2022-07-29T13:42:55;34.10;68.40
28460;DHT22;32528;45.712;9.192;2022-07-29T13:44:55;34.60;67.70